Herndon, Kentucky
Current Conditions -  °F | °C
As of 7:58 PM on Tuesday 21 Oct 2014 (Local Time) from KHOP Reporting Station
Clear Clear  
Wind Chill: 13°   Ceiling: Unl
Heat Index: 13°   Visibility: 10mi
Dew Point:   Wind: 10mph
Humidity: 72%   Direction: 30°NNE
Pressure: 30.11"   Gusts: NA
Location:  36.73°N, 87.57°W
Report Text: KHOP 220058Z AUTO 03009KT 10SM CLR 13/08 A3011 RMK AO2 SLP198 T01270077
Loading
Personal Weather Stations






























Interactive Weather Map
Tropical Storm Tracking
New forecast layout! Learn more

10-Day Weather Forecast

Advertisements
Track Severe Weather on mobile